Hlavní strana
METAR-TAF:

METAR-TAF

Letiště :

Crawfordsville, Indiana, Spojené státy americké

zeměpisná šířka: 39-58-34N, zeměpisná délka: 086-55-09W, výška: 244 m

Aktuální stav počasí

Zpráva byla vytvořena před 26 minutami, v 15:15 UTC
Západoseverozápadní vítr 13 kt s nárazy do 20 kt
Teplota 8°C
Vlhkost vzduchu 61%
Tlak 1021 hPa
Viditelnost: 16.1 km
Jasno

METAR: KCFJ 301515Z AUTO 29013G20KT 10SM CLR 08/01 A3016 RMK AO2 T00800007

Čas: 11:41 (15:41 UTC)


TAF: chybějící

Stav a předpovědi počasí z více než 4 000 letišť (zprávy METAR a TAF).

Červené a žluté tečky na mapě představují dostupné meteorologické stanice.

Když kurzor umístíte na tečku, zobrazí se název stanice.

Pak kliknutím zobrazíte stav a předpověď počasí.

Chcete-li změnit mapu, kliknutím na zelené tlačítko se znaménkem +mapu přiblížíte, kliknutím na zelené tlačítko se znaménkem – mapu oddálíte a kliknutím na zelené šipky přejdete na sousední mapy.


METAR-TAF: